Terminal Aerodrome Forecast
Issued by NWS St Louis, MO

Home | Current Version | Previous Version | Text Only | Print | Product List | Glossary On
Versions: 1 2 3 4 5 6 7 8 9 10 11 12 13 14 15 16 17 18 19 20 21 22 23 24 25 26 27
000
FTUS43 KLSX 221106 AAB
TAFSTL
TAF AMD
KSTL 221106Z 2211/2312 04011G25KT P6SM VCTS BKN020CB OVC050
      TEMPO 2211/2213 4SM -TSRA
     FM221300 24009KT P6SM FEW050 SCT250
     FM230100 20006KT P6SM FEW150=

USA.gov is the U.S. government's official web portal to all federal, state and local government web resources and services.